Groton, CT

5:37 PM EDT on October 18, 2019 (GMT -0400)
East Shore Thames River Near EB | | Change Station

Elev 80 ft 41.34 °N, 72.08 °W | Updated 45 seconds ago

Mostly Cloudy
Mostly Cloudy
54.7 °F
Feels Like 54.7 °F
N
2.68
Wind Variable Wind from NW
Gusts 5.4 mph

Today
High -- | Low -- °F
--% Chance of Precip.
Yesterday
High -- | Low -- °F
Precip. -- in
Pressure 29.83 in
Visibility 10.0 miles
Clouds Mostly Cloudy 4800 ft
Dew Point 48 °F
Humidity 78%
Rainfall 0.00 in
Snow Depth Not available.
7:03 AM 6:03 PM
Waning Gibbous, 77% visible
METAR KGON 182056Z 30015KT 10SM BKN048 13/04 A2983 RMK AO2 SLP099 T01330039 53026
Pressure 29.83 in
Visibility 10.0 miles
Clouds Mostly Cloudy 4800 ft
Dew Point 48 °F
Humidity 78%
Rainfall 0.00 in
Snow Depth Not available.
7:03 AM 6:03 PM
Waning Gibbous, 77% visible
METAR KGON 182056Z 30015KT 10SM BKN048 13/04 A2983 RMK AO2 SLP099 T01330039 53026

Get Severe Weather Alerts

Thanks for signing up!

Be on the lookout for a verification email in your inbox.

You'll start receiving the daily forecast at 6 AM.

×

10-Day Weather Forecast

Almanac

Astronomy

Oct. 18, 2019 Rise Set
Actual Time
Civil Twilight
Nautical Twilight
Astronomical Twilight
Moon
Length of Visible Light
Length of Day
Tomorrow will be .
, % of the Moon is Illuminated

Today's Extremes

State Highs State Lows

Community

WunderPhotos

Category 6

Welcome to Category 6. This is the collective home for Weather Underground's featured writeups by Dr. Jeff Masters (right), Bob Henson (left), Chris Burt, and other regular contributors.

Nearby

Air Quality

  Air Quality AQ Index Pollutant
Not available.

Snow Depth

Station Depth Elevation

Earthquake Activity

City Distance Mag. Time & Date
Minimum magnitude displayed is 2.5.

Coastal Water Temperatures

Place Temperature

Stations

Nearby Weather Stations

Station Location Temp. Windchill Dew Point Humidity Wind Precip. Elev Updated Type
                   

Watches & Warnings

There are currently no watches in effect.